createdAt,value
2019-01-10T00:00:25.715Z,1.70
2019-01-10T00:01:25.700Z,1.60
2019-01-10T00:02:25.684Z,1.70
2019-01-10T00:03:25.673Z,1.70
2019-01-10T00:04:25.659Z,1.90
2019-01-10T00:05:25.654Z,1.70
2019-01-10T00:06:25.639Z,2.00
2019-01-10T00:07:25.628Z,1.70
2019-01-10T00:08:25.626Z,1.60
2019-01-10T00:09:25.600Z,1.90
2019-01-10T00:10:25.589Z,1.90
2019-01-10T00:11:25.581Z,1.90
2019-01-10T00:12:25.573Z,2.00
2019-01-10T00:13:25.555Z,1.60
2019-01-10T00:14:25.554Z,1.90
2019-01-10T00:15:25.529Z,1.60
2019-01-10T00:16:25.526Z,1.60
2019-01-10T00:17:25.522Z,1.80
2019-01-10T00:18:25.502Z,1.80
2019-01-10T00:19:25.493Z,1.90
2019-01-10T00:20:25.465Z,1.60
2019-01-10T00:21:25.465Z,1.60
2019-01-10T00:22:25.448Z,1.50
2019-01-10T00:23:25.436Z,1.90
2019-01-10T00:24:25.422Z,1.60
2019-01-10T00:25:25.420Z,1.80
2019-01-10T00:26:25.408Z,1.70
2019-01-10T00:27:25.385Z,2.00
2019-01-10T00:28:25.377Z,1.70
2019-01-10T00:29:25.363Z,1.80
2019-01-10T00:30:25.352Z,1.70
2019-01-10T00:31:25.343Z,1.80
2019-01-10T00:32:25.333Z,1.80
2019-01-10T00:33:25.323Z,1.90
2019-01-10T00:34:25.308Z,1.60
2019-01-10T00:35:25.296Z,1.90
2019-01-10T00:36:25.284Z,1.90
2019-01-10T00:37:25.269Z,2.00
2019-01-10T00:38:25.274Z,1.80
2019-01-10T00:39:25.258Z,1.70
2019-01-10T00:40:25.282Z,1.70
2019-01-10T00:41:25.224Z,2.00
2019-01-10T00:42:25.210Z,1.80
2019-01-10T00:43:25.202Z,1.90
2019-01-10T00:44:25.186Z,1.80
2019-01-10T00:45:25.178Z,2.00
2019-01-10T00:46:25.166Z,1.80
2019-01-10T00:47:25.150Z,1.90
2019-01-10T00:48:25.146Z,1.70
2019-01-10T00:49:25.135Z,1.90
2019-01-10T00:50:25.113Z,1.80
2019-01-10T00:51:25.105Z,2.70
2019-01-10T00:52:25.096Z,1.60
2019-01-10T00:53:25.083Z,2.10
2019-01-10T00:54:25.073Z,1.70
2019-01-10T00:55:25.063Z,1.40
2019-01-10T00:56:25.048Z,1.70
2019-01-10T00:57:25.033Z,1.80
2019-01-10T00:58:25.029Z,1.70
2019-01-10T00:59:25.011Z,1.90
2019-01-10T01:00:25.000Z,2.50
2019-01-10T01:01:24.985Z,1.90
2019-01-10T01:02:24.971Z,1.90
2019-01-10T01:03:24.962Z,1.60
2019-01-10T01:04:24.953Z,1.90
2019-01-10T01:05:24.936Z,2.00
2019-01-10T01:06:24.926Z,1.70
2019-01-10T01:07:24.916Z,1.60
2019-01-10T01:08:24.904Z,1.70
2019-01-10T01:09:24.903Z,1.90
2019-01-10T01:10:24.877Z,1.90
2019-01-10T01:11:24.864Z,2.10
2019-01-10T01:12:24.858Z,1.40
2019-01-10T01:13:24.844Z,1.60
2019-01-10T01:14:24.832Z,1.80
2019-01-10T01:15:24.819Z,1.70
2019-01-10T01:16:24.807Z,2.00
2019-01-10T01:17:24.796Z,1.90
2019-01-10T01:18:24.782Z,1.60
2019-01-10T01:19:24.772Z,1.80
2019-01-10T01:20:24.768Z,2.00
2019-01-10T01:21:24.746Z,1.80
2019-01-10T01:22:24.735Z,1.90
2019-01-10T01:23:24.723Z,2.10
2019-01-10T01:24:24.719Z,1.70
2019-01-10T01:25:24.713Z,1.80
2019-01-10T01:26:24.691Z,1.80
2019-01-10T01:27:24.676Z,1.90
2019-01-10T01:28:24.663Z,1.90
2019-01-10T01:29:24.709Z,1.90
2019-01-10T01:30:24.639Z,1.90
2019-01-10T01:31:24.629Z,2.00
2019-01-10T01:32:24.612Z,2.10
2019-01-10T01:33:24.603Z,1.90
2019-01-10T01:34:24.592Z,1.90
2019-01-10T01:35:24.580Z,1.70
2019-01-10T01:36:24.570Z,2.10
2019-01-10T01:37:24.554Z,2.00
2019-01-10T01:38:24.542Z,1.80
2019-01-10T01:39:24.529Z,2.00
2019-01-10T01:40:24.521Z,1.80
2019-01-10T01:41:24.514Z,2.10
2019-01-10T01:42:24.512Z,1.60
2019-01-10T01:43:24.489Z,2.00
2019-01-10T01:44:24.475Z,1.70
2019-01-10T01:45:24.469Z,2.00
2019-01-10T01:46:24.447Z,1.90
2019-01-10T01:47:24.451Z,1.70
2019-01-10T01:48:24.436Z,2.20
2019-01-10T01:49:24.428Z,1.90
2019-01-10T01:50:24.402Z,1.90
2019-01-10T01:51:24.394Z,1.80
2019-01-10T01:52:24.393Z,2.00
2019-01-10T01:53:24.376Z,2.20
2019-01-10T01:54:24.357Z,1.70
2019-01-10T01:55:24.351Z,1.70
2019-01-10T01:56:24.344Z,2.00
2019-01-10T01:57:24.325Z,1.70
2019-01-10T01:58:24.312Z,1.90
2019-01-10T01:59:25.210Z,1.80
2019-01-10T02:00:24.282Z,1.70
2019-01-10T02:01:24.281Z,1.70
2019-01-10T02:02:24.275Z,2.00
2019-01-10T02:03:24.249Z,1.90
2019-01-10T02:04:24.240Z,1.80
2019-01-10T02:05:24.223Z,1.60
2019-01-10T02:06:24.215Z,1.90
2019-01-10T02:07:24.207Z,1.60
2019-01-10T02:08:24.196Z,1.50
2019-01-10T02:09:24.174Z,1.80
2019-01-10T02:10:24.167Z,1.70
2019-01-10T02:11:24.163Z,1.80
2019-01-10T02:12:24.141Z,2.00
2019-01-10T02:13:24.128Z,1.90
2019-01-10T02:14:24.114Z,2.00
2019-01-10T02:15:24.115Z,2.00
2019-01-10T02:16:24.090Z,1.80
2019-01-10T02:17:24.091Z,2.00
2019-01-10T02:18:24.067Z,1.50
2019-01-10T02:19:24.056Z,1.90
2019-01-10T02:20:24.041Z,2.30
2019-01-10T02:21:24.042Z,1.80
2019-01-10T02:22:24.017Z,2.10
2019-01-10T02:23:24.012Z,1.90
2019-01-10T02:24:24.005Z,1.60
2019-01-10T02:25:23.985Z,1.80
2019-01-10T02:26:23.976Z,2.00
2019-01-10T02:27:23.955Z,2.00
2019-01-10T02:28:23.948Z,1.80
2019-01-10T02:29:23.936Z,1.80
2019-01-10T02:30:23.948Z,2.00
2019-01-10T02:31:23.913Z,2.00
2019-01-10T02:32:23.900Z,1.80
2019-01-10T02:33:23.887Z,1.80
2019-01-10T02:34:23.874Z,2.30
2019-01-10T02:35:23.868Z,2.50
2019-01-10T02:36:23.853Z,2.20
2019-01-10T02:37:23.844Z,1.80
2019-01-10T02:38:23.832Z,1.80
2019-01-10T02:39:23.817Z,1.80
2019-01-10T02:40:23.801Z,1.70
2019-01-10T02:41:23.796Z,2.20
2019-01-10T02:42:23.776Z,2.20
2019-01-10T02:43:26.554Z,2.10
2019-01-10T02:44:23.753Z,1.80
2019-01-10T02:45:23.745Z,2.20
2019-01-10T02:46:23.733Z,2.00
2019-01-10T02:47:23.729Z,1.70
2019-01-10T02:48:23.719Z,1.80
2019-01-10T02:49:23.701Z,1.90
2019-01-10T02:50:23.685Z,1.80
2019-01-10T02:51:23.674Z,1.50
2019-01-10T02:52:23.666Z,1.60
2019-01-10T02:53:23.646Z,1.90
2019-01-10T02:54:23.636Z,1.80
2019-01-10T02:55:23.624Z,2.00
2019-01-10T02:56:23.614Z,1.70
2019-01-10T02:57:23.605Z,2.00
2019-01-10T02:58:23.593Z,1.90
2019-01-10T02:59:23.584Z,1.70
2019-01-10T03:00:23.566Z,1.90
2019-01-10T03:01:23.553Z,2.00
2019-01-10T03:02:23.546Z,1.50
2019-01-10T03:03:23.534Z,2.40
2019-01-10T03:04:23.522Z,1.80
2019-01-10T03:05:23.511Z,1.80
2019-01-10T03:06:23.505Z,2.30
2019-01-10T03:07:23.487Z,2.00
2019-01-10T03:08:23.475Z,1.70
2019-01-10T03:09:23.461Z,1.90
2019-01-10T03:10:23.445Z,1.70
2019-01-10T03:11:23.437Z,1.90
2019-01-10T03:12:23.422Z,1.70
2019-01-10T03:13:23.414Z,1.80
2019-01-10T03:14:23.403Z,1.80
2019-01-10T03:15:23.388Z,1.80
2019-01-10T03:16:23.378Z,2.10
2019-01-10T03:17:23.369Z,1.60
2019-01-10T03:18:23.358Z,1.80
2019-01-10T03:19:23.342Z,1.90
2019-01-10T03:20:23.330Z,1.70
2019-01-10T03:21:23.320Z,1.80
2019-01-10T03:22:23.309Z,1.80
2019-01-10T03:23:23.294Z,2.20
2019-01-10T03:24:23.282Z,2.10
2019-01-10T03:25:23.270Z,2.20
2019-01-10T03:26:23.253Z,2.20
2019-01-10T03:27:23.242Z,2.00
2019-01-10T03:28:23.234Z,1.70
2019-01-10T03:29:23.232Z,1.80
2019-01-10T03:30:23.215Z,2.40
2019-01-10T03:31:23.210Z,2.40
2019-01-10T03:32:23.188Z,1.90
2019-01-10T03:33:23.194Z,2.30
2019-01-10T03:34:23.158Z,2.00
2019-01-10T03:35:23.152Z,2.20
2019-01-10T03:36:23.141Z,1.90
2019-01-10T03:37:23.125Z,1.80
2019-01-10T03:38:23.109Z,2.00
2019-01-10T03:39:23.103Z,1.80
2019-01-10T03:40:23.087Z,1.80
2019-01-10T03:41:23.079Z,2.40
2019-01-10T03:42:23.073Z,1.70
2019-01-10T03:43:23.056Z,1.90
2019-01-10T03:44:23.044Z,1.90
2019-01-10T03:45:23.071Z,1.80
2019-01-10T03:46:23.019Z,2.50
2019-01-10T03:47:23.010Z,2.20
2019-01-10T03:48:22.996Z,2.30
2019-01-10T03:49:22.984Z,2.00
2019-01-10T03:50:22.972Z,1.90
2019-01-10T03:51:22.964Z,2.00
2019-01-10T03:52:22.947Z,1.90
2019-01-10T03:53:22.934Z,1.90
2019-01-10T03:54:22.925Z,2.10
2019-01-10T03:55:22.912Z,2.30
2019-01-10T03:56:22.900Z,2.60
2019-01-10T03:57:22.889Z,1.70
2019-01-10T03:58:22.880Z,2.00
2019-01-10T03:59:22.861Z,1.80
2019-01-10T04:00:22.854Z,2.20
2019-01-10T04:01:22.841Z,1.80
2019-01-10T04:02:22.830Z,1.80
2019-01-10T04:03:22.817Z,2.10
2019-01-10T04:04:22.801Z,2.00
2019-01-10T04:05:22.792Z,1.90
2019-01-10T04:06:22.784Z,1.90
2019-01-10T04:07:22.768Z,2.00
2019-01-10T04:08:22.758Z,2.00
2019-01-10T04:09:22.745Z,2.00
2019-01-10T04:10:22.734Z,1.90
2019-01-10T04:11:22.723Z,2.00
2019-01-10T04:12:22.705Z,2.20
2019-01-10T04:13:22.701Z,2.00
2019-01-10T04:14:22.686Z,1.90
2019-01-10T04:15:22.678Z,2.00
2019-01-10T04:16:22.661Z,2.20
2019-01-10T04:17:22.648Z,2.30
2019-01-10T04:18:22.637Z,2.00
2019-01-10T04:19:22.621Z,2.10
2019-01-10T04:20:22.611Z,2.30
2019-01-10T04:21:22.601Z,2.40
2019-01-10T04:22:22.589Z,2.40
2019-01-10T04:23:22.574Z,2.20
2019-01-10T04:24:22.566Z,2.70
2019-01-10T04:25:22.547Z,2.40
2019-01-10T04:26:22.537Z,2.20
2019-01-10T04:27:22.530Z,2.60
2019-01-10T04:28:22.520Z,2.00
2019-01-10T04:29:22.505Z,2.10
2019-01-10T04:30:22.490Z,2.40
2019-01-10T04:31:22.482Z,2.60
2019-01-10T04:32:22.467Z,2.50
2019-01-10T04:33:22.449Z,2.20
2019-01-10T04:34:22.443Z,2.00
2019-01-10T04:35:22.431Z,1.80
2019-01-10T04:36:22.427Z,2.30
2019-01-10T04:37:22.405Z,2.10
2019-01-10T04:38:22.391Z,2.30
2019-01-10T04:39:22.378Z,2.40
2019-01-10T04:40:22.369Z,2.40
2019-01-10T04:41:22.359Z,2.80
2019-01-10T04:42:22.349Z,2.10
2019-01-10T04:43:22.334Z,1.90
2019-01-10T04:44:22.321Z,2.30
2019-01-10T04:45:22.309Z,2.40
2019-01-10T04:46:22.336Z,2.60
2019-01-10T04:47:22.284Z,2.30
2019-01-10T04:48:22.272Z,2.00
2019-01-10T04:49:22.265Z,2.60
2019-01-10T04:50:22.259Z,2.30
2019-01-10T04:51:22.252Z,2.30
2019-01-10T04:52:22.221Z,2.30
2019-01-10T04:53:22.217Z,2.40
2019-01-10T04:54:22.200Z,2.80
2019-01-10T04:55:22.187Z,2.30
2019-01-10T04:56:22.182Z,2.40
2019-01-10T04:57:22.170Z,2.40
2019-01-10T04:58:22.153Z,2.20
2019-01-10T04:59:22.144Z,2.30
2019-01-10T05:00:22.127Z,2.70
2019-01-10T05:01:22.112Z,2.10
2019-01-10T05:02:22.109Z,2.40
2019-01-10T05:03:22.091Z,2.00
2019-01-10T05:04:22.084Z,2.30
2019-01-10T05:05:22.062Z,2.70
2019-01-10T05:06:22.056Z,2.30
2019-01-10T05:07:22.056Z,2.40
2019-01-10T05:08:22.035Z,2.30
2019-01-10T05:09:22.022Z,2.80
2019-01-10T05:10:22.004Z,2.10
2019-01-10T05:11:21.991Z,2.10
2019-01-10T05:12:21.980Z,2.40
2019-01-10T05:13:21.976Z,2.40
2019-01-10T05:14:21.964Z,2.50
2019-01-10T05:15:21.955Z,2.60
2019-01-10T05:16:21.931Z,2.10
2019-01-10T05:17:21.920Z,2.50
2019-01-10T05:18:22.017Z,1.90
2019-01-10T05:19:21.899Z,2.50
2019-01-10T05:20:21.883Z,2.40
2019-01-10T05:21:21.882Z,2.50
2019-01-10T05:22:21.864Z,2.40
2019-01-10T05:23:22.215Z,3.40
2019-01-10T05:24:21.835Z,2.40
2019-01-10T05:25:21.832Z,2.60
2019-01-10T05:26:21.814Z,2.40
2019-01-10T05:27:21.805Z,2.90
2019-01-10T05:28:21.794Z,2.70
2019-01-10T05:29:21.774Z,2.30
2019-01-10T05:30:21.761Z,2.50
2019-01-10T05:31:21.750Z,2.00
2019-01-10T05:32:21.747Z,2.60
2019-01-10T05:33:21.736Z,2.50
2019-01-10T05:34:21.717Z,2.30
2019-01-10T05:35:21.707Z,2.60
2019-01-10T05:36:21.699Z,2.30
2019-01-10T05:37:21.681Z,2.10
2019-01-10T05:38:21.673Z,2.60
2019-01-10T05:39:21.657Z,2.20
2019-01-10T05:40:21.638Z,2.40
2019-01-10T05:41:21.637Z,2.70
2019-01-10T05:42:21.616Z,2.20
2019-01-10T05:43:21.612Z,2.20
2019-01-10T05:44:26.627Z,2.30
2019-01-10T05:45:21.583Z,2.60
2019-01-10T05:46:21.573Z,2.60
2019-01-10T05:47:21.559Z,2.50
2019-01-10T05:48:21.546Z,2.20
2019-01-10T05:49:21.534Z,2.60
2019-01-10T05:50:21.521Z,2.80
2019-01-10T05:51:21.512Z,2.90
2019-01-10T05:52:21.497Z,2.50
2019-01-10T05:53:21.481Z,2.30
2019-01-10T05:54:21.470Z,2.50
2019-01-10T05:55:21.459Z,2.00
2019-01-10T05:56:21.448Z,2.30
2019-01-10T05:57:21.433Z,2.60
2019-01-10T05:58:21.425Z,2.00
2019-01-10T05:59:21.414Z,2.40
2019-01-10T06:00:21.398Z,2.20
2019-01-10T06:01:21.390Z,2.30
2019-01-10T06:02:21.374Z,2.30
2019-01-10T06:03:21.365Z,2.40
2019-01-10T06:04:21.350Z,2.30
2019-01-10T06:05:21.451Z,2.60
2019-01-10T06:06:21.327Z,2.40
2019-01-10T06:07:21.312Z,2.00
2019-01-10T06:08:21.310Z,2.50
2019-01-10T06:09:21.292Z,2.30
2019-01-10T06:10:21.286Z,2.40
2019-01-10T06:11:21.266Z,2.50
2019-01-10T06:12:21.246Z,2.50
2019-01-10T06:13:21.245Z,2.30
2019-01-10T06:14:21.227Z,2.10
2019-01-10T06:15:21.226Z,2.20
2019-01-10T06:16:21.212Z,2.50
2019-01-10T06:17:21.193Z,2.60
2019-01-10T06:18:21.184Z,2.40
2019-01-10T06:19:26.792Z,2.30
2019-01-10T06:20:21.165Z,2.30
2019-01-10T06:21:21.156Z,2.60
2019-01-10T06:22:21.129Z,2.40
2019-01-10T06:23:21.121Z,2.80
2019-01-10T06:24:21.114Z,2.30
2019-01-10T06:25:21.096Z,2.40
2019-01-10T06:26:21.082Z,2.10
2019-01-10T06:27:21.067Z,2.20
2019-01-10T06:28:21.059Z,2.40
2019-01-10T06:29:21.052Z,2.40
2019-01-10T06:30:21.038Z,2.40
2019-01-10T06:31:21.022Z,2.50
2019-01-10T06:32:21.004Z,2.40
2019-01-10T06:33:21.000Z,2.70
2019-01-10T06:34:20.985Z,2.10
2019-01-10T06:35:20.967Z,2.50
2019-01-10T06:36:20.960Z,2.20
2019-01-10T06:37:20.945Z,2.30
2019-01-10T06:38:20.937Z,2.70
2019-01-10T06:39:20.926Z,2.10
2019-01-10T06:40:20.908Z,2.70
2019-01-10T06:41:20.901Z,2.20
2019-01-10T06:42:21.765Z,2.40
2019-01-10T06:43:20.873Z,2.60
2019-01-10T06:44:21.615Z,2.80
2019-01-10T06:45:20.846Z,2.10
2019-01-10T06:46:20.840Z,2.40
2019-01-10T06:47:20.819Z,2.40
2019-01-10T06:48:20.807Z,2.30
2019-01-10T06:49:20.802Z,2.30
2019-01-10T06:50:20.786Z,2.70
2019-01-10T06:51:20.771Z,2.60
2019-01-10T06:52:20.761Z,2.50
2019-01-10T06:53:20.751Z,2.30
2019-01-10T06:54:20.736Z,2.50
2019-01-10T06:55:20.721Z,2.80
2019-01-10T06:56:20.709Z,3.20
2019-01-10T06:57:20.705Z,2.70
2019-01-10T06:58:20.690Z,2.40
2019-01-10T06:59:20.674Z,2.80
2019-01-10T07:00:20.660Z,3.00
2019-01-10T07:01:20.655Z,2.90
2019-01-10T07:02:20.633Z,2.50
2019-01-10T07:03:20.625Z,2.50
2019-01-10T07:04:20.612Z,2.50
2019-01-10T07:05:20.602Z,2.80
2019-01-10T07:06:20.604Z,2.70
2019-01-10T07:07:20.574Z,2.70
2019-01-10T07:08:20.563Z,2.60
2019-01-10T07:09:20.552Z,2.70
2019-01-10T07:10:20.539Z,3.00
2019-01-10T07:11:20.526Z,3.00
2019-01-10T07:12:20.509Z,3.10
2019-01-10T07:13:20.501Z,2.80
2019-01-10T07:14:20.489Z,2.50
2019-01-10T07:15:20.480Z,2.50
2019-01-10T07:16:20.460Z,2.30
2019-01-10T07:17:20.450Z,2.40
2019-01-10T07:18:20.443Z,2.30
2019-01-10T07:19:20.424Z,2.20
2019-01-10T07:20:20.416Z,2.50
2019-01-10T07:21:20.404Z,2.30
2019-01-10T07:22:20.385Z,2.60
2019-01-10T07:23:20.379Z,2.60
2019-01-10T07:24:21.266Z,2.60
2019-01-10T07:25:20.352Z,2.60
2019-01-10T07:26:20.339Z,2.70
2019-01-10T07:27:20.331Z,2.20
2019-01-10T07:28:20.313Z,2.70
2019-01-10T07:29:20.299Z,2.70
2019-01-10T07:30:20.287Z,2.40
2019-01-10T07:31:20.278Z,2.90
2019-01-10T07:32:20.266Z,2.60
2019-01-10T07:33:20.253Z,2.70
2019-01-10T07:34:20.238Z,2.50
2019-01-10T07:35:20.226Z,2.70
2019-01-10T07:36:20.209Z,2.30
2019-01-10T07:37:20.198Z,2.50
2019-01-10T07:38:20.191Z,3.00
2019-01-10T07:39:20.178Z,2.60
2019-01-10T07:40:20.166Z,2.60
2019-01-10T07:41:20.153Z,3.10
2019-01-10T07:42:20.143Z,2.40
2019-01-10T07:43:20.131Z,2.90
2019-01-10T07:44:20.117Z,2.40
2019-01-10T07:45:20.101Z,2.30
2019-01-10T07:46:20.092Z,2.60
2019-01-10T07:47:20.075Z,2.40
2019-01-10T07:48:20.066Z,2.30
2019-01-10T07:49:21.615Z,2.80
2019-01-10T07:50:20.042Z,2.20
2019-01-10T07:51:20.028Z,2.50
2019-01-10T07:52:20.017Z,2.50
2019-01-10T07:53:20.005Z,2.50
2019-01-10T07:54:19.993Z,2.30
2019-01-10T07:55:19.976Z,2.50
2019-01-10T07:56:19.967Z,2.20
2019-01-10T07:57:19.953Z,2.90
2019-01-10T07:58:19.943Z,3.40
2019-01-10T07:59:20.022Z,2.60
2019-01-10T08:00:19.923Z,2.40
2019-01-10T08:01:19.902Z,2.80
2019-01-10T08:02:19.899Z,2.40
2019-01-10T08:03:19.884Z,2.30
2019-01-10T08:04:19.867Z,2.60
2019-01-10T08:05:19.855Z,2.90
2019-01-10T08:06:19.897Z,2.60
2019-01-10T08:07:19.834Z,2.60
2019-01-10T08:08:19.823Z,2.90
2019-01-10T08:09:19.816Z,2.70
2019-01-10T08:10:19.812Z,3.10
2019-01-10T08:11:19.785Z,2.80
2019-01-10T08:12:19.839Z,2.50
2019-01-10T08:13:19.762Z,3.20
2019-01-10T08:14:19.744Z,3.30
2019-01-10T08:15:19.734Z,3.00
2019-01-10T08:16:19.726Z,2.80
2019-01-10T08:17:19.731Z,2.70
2019-01-10T08:18:19.702Z,2.80
2019-01-10T08:19:19.690Z,3.20
2019-01-10T08:20:19.677Z,3.40
2019-01-10T08:21:19.667Z,2.90
2019-01-10T08:22:27.550Z,4.10
2019-01-10T08:23:19.648Z,3.70
2019-01-10T08:24:19.628Z,3.40
2019-01-10T08:25:19.622Z,3.40
2019-01-10T08:26:19.611Z,3.90
2019-01-10T08:27:19.595Z,3.10
2019-01-10T08:28:19.583Z,3.20
2019-01-10T08:29:19.577Z,2.80
2019-01-10T08:30:19.555Z,2.60
2019-01-10T08:31:19.547Z,3.20
2019-01-10T08:32:19.533Z,3.00
2019-01-10T08:33:19.522Z,2.80
2019-01-10T08:34:19.514Z,2.20
2019-01-10T08:35:19.500Z,2.90
2019-01-10T08:36:19.488Z,2.50
2019-01-10T08:37:19.472Z,3.00
2019-01-10T08:38:19.463Z,2.60
2019-01-10T08:39:19.451Z,2.80
2019-01-10T08:40:19.443Z,2.70
2019-01-10T08:41:19.433Z,2.80
2019-01-10T08:42:19.413Z,2.70
2019-01-10T08:43:19.406Z,2.50
2019-01-10T08:44:19.391Z,2.50
2019-01-10T08:45:21.713Z,2.50
2019-01-10T08:46:19.373Z,2.90
2019-01-10T08:47:19.362Z,2.50
2019-01-10T08:48:19.346Z,2.70
2019-01-10T08:49:19.337Z,2.80
2019-01-10T08:50:19.317Z,2.80
2019-01-10T08:51:19.308Z,2.70
2019-01-10T08:52:19.296Z,2.70
2019-01-10T08:53:19.294Z,2.70
2019-01-10T08:54:19.283Z,2.90
2019-01-10T08:55:19.265Z,2.70
2019-01-10T08:56:19.252Z,2.60
2019-01-10T08:57:19.235Z,2.70
2019-01-10T08:58:19.231Z,2.80
2019-01-10T08:59:19.220Z,2.90
2019-01-10T09:00:19.208Z,2.60
2019-01-10T09:01:19.195Z,2.90
2019-01-10T09:02:19.187Z,3.00
2019-01-10T09:03:19.171Z,2.50
2019-01-10T09:04:19.157Z,2.90
2019-01-10T09:05:19.152Z,2.80
2019-01-10T09:06:19.136Z,2.50
2019-01-10T09:07:19.125Z,2.60
2019-01-10T09:08:19.140Z,2.90
2019-01-10T09:09:19.101Z,3.00
2019-01-10T09:10:19.092Z,2.90
2019-01-10T09:11:19.081Z,3.80
2019-01-10T09:12:19.069Z,2.90
2019-01-10T09:13:19.060Z,2.80
2019-01-10T09:14:19.103Z,3.00
2019-01-10T09:15:25.286Z,3.00
2019-01-10T09:16:19.020Z,3.10
2019-01-10T09:17:19.006Z,2.80
2019-01-10T09:18:19.721Z,3.00
2019-01-10T09:19:18.985Z,2.90
2019-01-10T09:20:18.993Z,3.00
2019-01-10T09:21:18.970Z,3.00
2019-01-10T09:22:18.948Z,3.40
2019-01-10T09:23:18.939Z,4.40
2019-01-10T09:24:18.925Z,3.80
2019-01-10T09:25:18.920Z,3.00
2019-01-10T09:26:18.917Z,3.00
2019-01-10T09:27:18.896Z,2.80
2019-01-10T09:28:18.884Z,2.80
2019-01-10T09:29:18.877Z,2.90
2019-01-10T09:30:18.864Z,2.90
2019-01-10T09:31:18.860Z,3.10
2019-01-10T09:32:18.836Z,2.90
2019-01-10T09:33:18.826Z,2.70
2019-01-10T09:34:24.724Z,2.90
2019-01-10T09:35:18.800Z,3.00
2019-01-10T09:36:18.790Z,2.80
2019-01-10T09:37:18.777Z,3.00
2019-01-10T09:38:18.769Z,2.90
2019-01-10T09:39:18.759Z,3.50
2019-01-10T09:40:18.748Z,3.10
2019-01-10T09:41:18.735Z,2.70
2019-01-10T09:42:18.724Z,3.20
2019-01-10T09:43:18.713Z,3.40
2019-01-10T09:44:18.697Z,3.00
2019-01-10T09:45:18.691Z,2.80
2019-01-10T09:46:18.677Z,3.10
2019-01-10T09:47:18.663Z,3.00
2019-01-10T09:48:18.654Z,3.20
2019-01-10T09:49:18.640Z,3.50
2019-01-10T09:50:18.636Z,3.40
2019-01-10T09:51:18.623Z,3.20
2019-01-10T09:52:18.605Z,3.10
2019-01-10T09:53:18.602Z,2.90
2019-01-10T09:54:18.581Z,2.70
2019-01-10T09:55:18.574Z,3.20
2019-01-10T09:56:18.561Z,2.80
2019-01-10T09:57:18.549Z,3.10
2019-01-10T09:58:18.541Z,2.90
2019-01-10T09:59:18.530Z,3.30
2019-01-10T10:00:18.516Z,2.90
2019-01-10T10:01:18.505Z,3.20
2019-01-10T10:02:18.488Z,3.10
2019-01-10T10:03:18.482Z,3.10
2019-01-10T10:04:18.473Z,3.00
2019-01-10T10:05:18.458Z,2.60
2019-01-10T10:06:18.444Z,2.70
2019-01-10T10:07:18.438Z,2.20
2019-01-10T10:08:18.426Z,2.60
2019-01-10T10:09:18.416Z,2.30
2019-01-10T10:10:18.401Z,2.60
2019-01-10T10:11:18.395Z,2.50
2019-01-10T10:12:18.388Z,2.50
2019-01-10T10:13:18.373Z,2.60
2019-01-10T10:14:18.356Z,3.30
2019-01-10T10:15:18.346Z,2.70
2019-01-10T10:16:18.337Z,2.60
2019-01-10T10:17:18.325Z,2.90
2019-01-10T10:18:18.311Z,2.90
2019-01-10T10:19:18.309Z,2.90
2019-01-10T10:20:18.293Z,2.60
2019-01-10T10:21:18.276Z,2.90
2019-01-10T10:22:18.261Z,2.60
2019-01-10T10:23:26.582Z,2.80
2019-01-10T10:24:18.245Z,2.90
2019-01-10T10:25:18.230Z,3.10
2019-01-10T10:26:18.220Z,2.60
2019-01-10T10:27:18.217Z,2.60
2019-01-10T10:28:18.199Z,2.50
2019-01-10T10:29:18.188Z,2.90
2019-01-10T10:30:18.173Z,2.50
2019-01-10T10:31:18.166Z,2.60
2019-01-10T10:32:18.149Z,2.70
2019-01-10T10:33:18.144Z,2.70
2019-01-10T10:34:18.127Z,2.70
2019-01-10T10:35:18.121Z,2.90
2019-01-10T10:36:18.114Z,3.30
2019-01-10T10:37:18.099Z,3.40
2019-01-10T10:38:18.083Z,2.80
2019-01-10T10:39:18.081Z,3.10
2019-01-10T10:40:18.066Z,2.90
2019-01-10T10:41:18.055Z,3.10
2019-01-10T10:42:18.040Z,3.20
2019-01-10T10:43:18.032Z,3.10
2019-01-10T10:44:18.019Z,3.00
2019-01-10T10:45:18.005Z,3.00
2019-01-10T10:46:18.004Z,3.20
2019-01-10T10:47:17.985Z,3.30
2019-01-10T10:48:17.977Z,3.20
2019-01-10T10:49:17.964Z,2.70
2019-01-10T10:50:18.004Z,2.90
2019-01-10T10:51:18.740Z,3.10
2019-01-10T10:52:17.933Z,3.00
2019-01-10T10:53:17.919Z,2.70
2019-01-10T10:54:17.906Z,3.30
2019-01-10T10:55:17.895Z,3.30
2019-01-10T10:56:17.884Z,2.80
2019-01-10T10:57:17.875Z,3.10
2019-01-10T10:58:17.864Z,3.30
2019-01-10T10:59:17.853Z,3.40
2019-01-10T11:00:17.838Z,2.60
2019-01-10T11:01:17.829Z,3.00
2019-01-10T11:02:17.818Z,2.60
2019-01-10T11:03:17.802Z,3.00
2019-01-10T11:04:17.791Z,2.90
2019-01-10T11:05:17.781Z,3.20
2019-01-10T11:06:17.784Z,2.80
2019-01-10T11:07:17.774Z,2.90
2019-01-10T11:08:17.752Z,3.00
2019-01-10T11:09:17.741Z,2.70
2019-01-10T11:10:17.732Z,2.80
2019-01-10T11:11:17.716Z,2.70
2019-01-10T11:12:17.712Z,2.60
2019-01-10T11:13:17.701Z,2.60
2019-01-10T11:14:17.681Z,2.80
2019-01-10T11:15:17.675Z,2.90
2019-01-10T11:16:17.660Z,3.00
2019-01-10T11:17:17.652Z,2.90
2019-01-10T11:18:17.640Z,2.60
2019-01-10T11:19:17.624Z,3.10
2019-01-10T11:20:17.620Z,2.50
2019-01-10T11:21:17.606Z,2.40
2019-01-10T11:22:17.593Z,2.80
2019-01-10T11:23:17.584Z,2.10
2019-01-10T11:24:17.571Z,2.70
2019-01-10T11:25:17.551Z,2.70
2019-01-10T11:26:17.547Z,2.70
2019-01-10T11:27:17.536Z,2.70
2019-01-10T11:28:17.530Z,3.10
2019-01-10T11:29:17.518Z,3.00
2019-01-10T11:30:17.508Z,3.20
2019-01-10T11:31:17.497Z,3.10
2019-01-10T11:32:17.481Z,2.90
2019-01-10T11:33:17.468Z,3.00
2019-01-10T11:34:17.463Z,2.80
2019-01-10T11:35:17.453Z,2.80
2019-01-10T11:36:17.443Z,3.10
2019-01-10T11:37:17.425Z,3.50
2019-01-10T11:38:17.421Z,2.80
2019-01-10T11:39:17.417Z,2.90
2019-01-10T11:40:17.397Z,3.00
2019-01-10T11:41:18.252Z,3.00
2019-01-10T11:42:17.372Z,3.40
2019-01-10T11:43:17.361Z,3.00
2019-01-10T11:44:17.350Z,3.20
2019-01-10T11:45:17.340Z,3.40
2019-01-10T11:46:19.822Z,3.20
2019-01-10T11:47:17.313Z,3.20
2019-01-10T11:48:17.314Z,3.00
2019-01-10T11:49:17.293Z,2.80
2019-01-10T11:50:17.283Z,3.40
2019-01-10T11:51:17.271Z,3.40
2019-01-10T11:52:17.257Z,3.10
2019-01-10T11:53:17.255Z,3.40
2019-01-10T11:54:17.231Z,3.20
2019-01-10T11:55:17.235Z,3.20
2019-01-10T11:56:17.218Z,3.40
2019-01-10T11:57:17.202Z,3.20
2019-01-10T11:58:17.190Z,3.00
2019-01-10T11:59:17.182Z,3.40
2019-01-10T12:00:17.170Z,3.40
2019-01-10T12:01:17.164Z,3.30
2019-01-10T12:02:17.153Z,3.00
2019-01-10T12:03:17.137Z,3.30
2019-01-10T12:04:17.123Z,2.80
2019-01-10T12:05:17.107Z,3.20
2019-01-10T12:06:17.105Z,3.30
2019-01-10T12:07:17.093Z,3.10
2019-01-10T12:08:17.077Z,3.10
2019-01-10T12:09:17.067Z,2.90
2019-01-10T12:10:17.054Z,3.30
2019-01-10T12:11:17.045Z,3.10
2019-01-10T12:12:17.032Z,3.00
2019-01-10T12:13:17.033Z,3.30
2019-01-10T12:14:17.013Z,2.70
2019-01-10T12:15:16.999Z,3.30
2019-01-10T12:16:17.007Z,3.10
2019-01-10T12:17:16.982Z,2.80
2019-01-10T12:18:16.965Z,3.10
2019-01-10T12:19:16.957Z,2.60
2019-01-10T12:20:16.941Z,2.80
2019-01-10T12:21:17.759Z,3.00
2019-01-10T12:22:16.920Z,2.90
2019-01-10T12:23:16.993Z,3.00
2019-01-10T12:24:16.897Z,2.70
2019-01-10T12:25:16.885Z,2.90
2019-01-10T12:26:17.761Z,2.80
2019-01-10T12:27:16.863Z,3.00
2019-01-10T12:28:16.851Z,2.70
2019-01-10T12:29:16.842Z,3.00
2019-01-10T12:30:16.827Z,3.20
2019-01-10T12:31:16.817Z,3.00
2019-01-10T12:32:16.812Z,3.00
2019-01-10T12:33:16.800Z,3.20
2019-01-10T12:34:16.785Z,3.40
2019-01-10T12:35:16.772Z,3.10
2019-01-10T12:36:16.764Z,3.30
2019-01-10T12:37:16.753Z,3.00
2019-01-10T12:38:16.737Z,3.00
2019-01-10T12:39:16.727Z,2.90
2019-01-10T12:40:16.714Z,2.80
2019-01-10T12:41:16.709Z,3.00
2019-01-10T12:42:16.693Z,3.30
2019-01-10T12:43:16.683Z,3.30
2019-01-10T12:44:16.671Z,3.40
2019-01-10T12:45:16.656Z,2.70
2019-01-10T12:46:16.666Z,3.20
2019-01-10T12:47:16.637Z,3.00
2019-01-10T12:48:16.628Z,3.10
2019-01-10T12:49:16.620Z,3.20
2019-01-10T12:50:16.615Z,3.10
2019-01-10T12:51:16.598Z,2.80
2019-01-10T12:52:16.596Z,3.40
2019-01-10T12:53:16.574Z,3.40
2019-01-10T12:54:16.562Z,3.00
2019-01-10T12:55:16.551Z,3.10
2019-01-10T12:56:18.477Z,3.20
2019-01-10T12:57:16.527Z,3.40
2019-01-10T12:58:16.524Z,2.80
2019-01-10T12:59:16.505Z,3.10
2019-01-10T13:00:16.491Z,3.10
2019-01-10T13:01:16.483Z,3.30
2019-01-10T13:02:16.472Z,2.60
2019-01-10T13:03:16.461Z,2.00
2019-01-10T13:04:16.450Z,3.00
2019-01-10T13:05:16.440Z,3.00
2019-01-10T13:06:16.423Z,2.40
2019-01-10T13:07:16.413Z,2.70
2019-01-10T13:08:16.406Z,2.40
2019-01-10T13:09:16.390Z,2.70
2019-01-10T13:10:16.381Z,2.50
2019-01-10T13:11:16.373Z,2.80
2019-01-10T13:12:16.358Z,2.90
2019-01-10T13:13:16.350Z,2.70
2019-01-10T13:14:16.331Z,2.70
2019-01-10T13:15:16.332Z,2.80
2019-01-10T13:16:16.327Z,2.60
2019-01-10T13:17:16.361Z,2.50
2019-01-10T13:18:16.290Z,2.90